createdAt,value
2022-12-22T00:02:39.692Z,22.67
2022-12-22T00:05:51.842Z,20.75
2022-12-22T00:08:37.832Z,22.05
2022-12-22T00:11:26.536Z,21.25
2022-12-22T00:14:12.550Z,21.38
2022-12-22T00:16:58.640Z,21.63
2022-12-22T00:19:45.371Z,22.45
2022-12-22T00:22:38.510Z,21.30
2022-12-22T00:25:24.388Z,22.65
2022-12-22T00:28:10.325Z,24.38
2022-12-22T00:30:57.090Z,21.77
2022-12-22T00:33:43.157Z,21.95
2022-12-22T00:36:31.358Z,22.15
2022-12-22T00:39:17.375Z,22.15
2022-12-22T00:42:03.589Z,21.67
2022-12-22T00:44:49.727Z,23.15
2022-12-22T00:47:46.115Z,21.55
2022-12-22T00:50:32.245Z,20.77
2022-12-22T00:53:18.242Z,21.40
2022-12-22T00:56:04.122Z,20.83
2022-12-22T00:58:49.975Z,21.45
2022-12-22T01:01:37.216Z,21.67
2022-12-22T01:04:22.901Z,21.38
2022-12-22T01:07:08.992Z,20.73
2022-12-22T01:09:55.096Z,19.15
2022-12-22T01:12:42.242Z,20.77
2022-12-22T01:15:32.207Z,20.05
2022-12-22T01:18:17.917Z,20.70
2022-12-22T01:21:03.875Z,19.83
2022-12-22T01:23:49.984Z,19.92
2022-12-22T01:26:36.047Z,21.05
2022-12-22T01:29:21.967Z,20.45
2022-12-22T01:32:08.079Z,20.08
2022-12-22T01:34:55.086Z,20.90
2022-12-22T01:37:40.912Z,20.33
2022-12-22T01:40:32.001Z,20.38
2022-12-22T01:43:18.066Z,20.67
2022-12-22T01:46:04.112Z,20.38
2022-12-22T01:48:50.856Z,20.92
2022-12-22T01:51:39.439Z,20.63
2022-12-22T01:54:26.027Z,19.75
2022-12-22T01:57:12.150Z,20.70
2022-12-22T01:59:58.090Z,20.45
2022-12-22T02:02:45.917Z,22.80
2022-12-22T02:05:33.823Z,20.45
2022-12-22T02:08:38.567Z,21.95
2022-12-22T02:11:42.364Z,20.77
2022-12-22T02:14:30.314Z,21.33
2022-12-22T02:17:35.477Z,20.90
2022-12-22T02:20:30.097Z,19.95
2022-12-22T02:23:21.557Z,20.65
2022-12-22T02:26:10.119Z,20.60
2022-12-22T02:28:56.163Z,20.90
2022-12-22T02:31:42.368Z,21.42
2022-12-22T02:34:32.911Z,21.52
2022-12-22T02:37:39.258Z,20.63
2022-12-22T02:40:41.243Z,21.98
2022-12-22T02:43:30.487Z,21.27
2022-12-22T02:46:27.244Z,19.65
2022-12-22T02:49:17.002Z,22.08
2022-12-22T02:52:06.001Z,20.83
2022-12-22T02:54:53.099Z,21.85
2022-12-22T02:57:40.022Z,20.60
2022-12-22T03:00:26.520Z,21.95
2022-12-22T03:03:12.428Z,21.05
2022-12-22T03:05:58.258Z,21.55
2022-12-22T03:08:44.613Z,23.13
2022-12-22T03:11:30.697Z,22.80
2022-12-22T03:14:16.559Z,22.58
2022-12-22T03:17:02.492Z,20.67
2022-12-22T03:19:48.477Z,22.52
2022-12-22T03:22:34.431Z,21.80
2022-12-22T03:25:20.503Z,21.88
2022-12-22T03:27:47.676Z,21.35
2022-12-22T03:30:15.083Z,20.95
2022-12-22T03:32:42.249Z,21.55
2022-12-22T03:35:09.564Z,22.10
2022-12-22T03:37:36.683Z,21.63
2022-12-22T03:40:03.887Z,21.52
2022-12-22T03:42:49.647Z,21.48
2022-12-22T03:45:35.540Z,23.10
2022-12-22T03:48:02.727Z,22.42
2022-12-22T03:50:29.859Z,23.15
2022-12-22T03:52:56.995Z,22.50
2022-12-22T03:55:24.221Z,22.05
2022-12-22T03:57:51.377Z,22.00
2022-12-22T04:00:18.615Z,22.35
2022-12-22T04:02:46.046Z,21.88
2022-12-22T04:05:13.416Z,20.73
2022-12-22T04:07:40.535Z,22.00
2022-12-22T04:10:26.935Z,22.00
2022-12-22T04:12:54.409Z,21.80
2022-12-22T04:15:32.655Z,21.13
2022-12-22T04:18:00.057Z,22.40
2022-12-22T04:20:27.563Z,20.10
2022-12-22T04:22:55.466Z,21.30
2022-12-22T04:25:22.960Z,20.33
2022-12-22T04:27:50.131Z,23.25
2022-12-22T04:30:17.497Z,21.58
2022-12-22T04:32:44.607Z,20.85
2022-12-22T04:35:11.878Z,21.63
2022-12-22T04:37:39.058Z,22.52
2022-12-22T04:40:06.615Z,22.05
2022-12-22T04:42:33.783Z,22.08
2022-12-22T04:45:00.990Z,22.45
2022-12-22T04:47:28.149Z,24.33
2022-12-22T04:49:55.796Z,22.08
2022-12-22T04:52:23.446Z,21.60
2022-12-22T04:54:50.596Z,22.23
2022-12-22T04:57:17.703Z,22.17
2022-12-22T04:59:44.939Z,22.40
2022-12-22T05:02:12.251Z,24.13
2022-12-22T05:04:39.685Z,22.73
2022-12-22T05:07:07.830Z,23.50
2022-12-22T05:09:35.200Z,22.75
2022-12-22T05:12:22.436Z,22.88
2022-12-22T05:14:49.703Z,22.02
2022-12-22T05:17:16.822Z,22.33
2022-12-22T05:19:43.999Z,23.60
2022-12-22T05:22:11.130Z,22.08
2022-12-22T05:24:38.296Z,22.65
2022-12-22T05:27:05.505Z,21.80
2022-12-22T05:29:32.631Z,21.55
2022-12-22T05:31:59.785Z,22.73
2022-12-22T05:34:26.969Z,23.05
2022-12-22T05:36:54.086Z,22.88
2022-12-22T05:39:21.216Z,21.52
2022-12-22T05:41:48.401Z,21.38
2022-12-22T05:44:16.585Z,22.35
2022-12-22T05:46:43.900Z,22.42
2022-12-22T05:49:11.108Z,23.52
2022-12-22T05:51:38.306Z,21.95
2022-12-22T05:54:05.425Z,23.48
2022-12-22T05:56:32.613Z,22.42
2022-12-22T05:58:59.768Z,22.55
2022-12-22T06:01:27.054Z,23.58
2022-12-22T06:03:59.611Z,23.50
2022-12-22T06:06:27.729Z,25.10
2022-12-22T06:08:55.047Z,24.33
2022-12-22T06:11:22.260Z,24.42
2022-12-22T06:13:52.265Z,24.75
2022-12-22T06:16:19.543Z,24.70
2022-12-22T06:18:46.721Z,24.40
2022-12-22T06:21:13.916Z,23.63
2022-12-22T06:23:41.111Z,22.90
2022-12-22T06:26:08.258Z,23.00
2022-12-22T06:28:35.358Z,23.77
2022-12-22T06:31:02.582Z,24.10
2022-12-22T06:33:29.755Z,22.92
2022-12-22T06:35:59.098Z,24.45
2022-12-22T06:38:27.411Z,24.25
2022-12-22T06:40:54.565Z,23.73
2022-12-22T06:43:21.732Z,24.27
2022-12-22T06:45:48.960Z,25.73
2022-12-22T06:48:16.109Z,23.52
2022-12-22T06:50:43.260Z,24.27
2022-12-22T06:53:10.790Z,27.38
2022-12-22T06:55:38.050Z,29.38
2022-12-22T06:58:05.652Z,30.10
2022-12-22T07:00:33.131Z,29.52
2022-12-22T07:03:00.814Z,31.02
2022-12-22T07:05:30.217Z,29.80
2022-12-22T07:08:01.215Z,30.67
2022-12-22T07:10:52.107Z,27.67
2022-12-22T07:13:24.187Z,25.58
2022-12-22T07:15:59.469Z,25.38
2022-12-22T07:18:29.208Z,24.38
2022-12-22T07:20:56.369Z,25.33
2022-12-22T07:23:23.631Z,23.73
2022-12-22T07:25:50.962Z,23.67
2022-12-22T07:28:20.915Z,24.88
2022-12-22T07:30:49.135Z,25.43
2022-12-22T07:33:16.351Z,24.73
2022-12-22T07:35:43.492Z,25.38
2022-12-22T07:38:10.677Z,26.25
2022-12-22T07:40:41.731Z,24.83
2022-12-22T07:43:09.823Z,24.45
2022-12-22T07:45:37.022Z,23.17
2022-12-22T07:48:27.865Z,23.25
2022-12-22T07:50:56.269Z,24.13
2022-12-22T07:53:23.403Z,27.00
2022-12-22T07:55:50.643Z,25.35
2022-12-22T07:58:17.756Z,26.05
2022-12-22T08:00:44.965Z,30.50
2022-12-22T08:03:12.257Z,27.42
2022-12-22T08:05:39.594Z,27.67
2022-12-22T08:08:06.727Z,30.67
2022-12-22T08:10:34.087Z,30.63
2022-12-22T08:13:01.259Z,35.38
2022-12-22T08:15:28.448Z,35.22
2022-12-22T08:17:55.623Z,33.45
2022-12-22T08:20:22.725Z,35.75
2022-12-22T08:22:49.820Z,34.95
2022-12-22T08:25:17.093Z,33.72
2022-12-22T08:27:48.237Z,35.40
2022-12-22T08:30:15.597Z,34.00
2022-12-22T08:32:43.343Z,33.47
2022-12-22T08:35:11.142Z,29.15
2022-12-22T08:37:41.629Z,28.45
2022-12-22T08:40:29.292Z,27.60
2022-12-22T08:43:00.035Z,26.02
2022-12-22T08:45:27.233Z,25.75
2022-12-22T08:47:54.503Z,23.73
2022-12-22T08:50:21.713Z,25.17
2022-12-22T08:52:48.854Z,26.75
2022-12-22T08:55:16.121Z,28.73
2022-12-22T08:57:43.415Z,29.45
2022-12-22T09:00:12.956Z,27.17
2022-12-22T09:02:40.286Z,26.25
2022-12-22T09:05:07.785Z,25.75
2022-12-22T09:07:34.905Z,26.60
2022-12-22T09:10:02.095Z,27.38
2022-12-22T09:12:29.260Z,27.92
2022-12-22T09:14:56.947Z,27.63
2022-12-22T09:17:24.144Z,24.63
2022-12-22T09:19:51.465Z,24.80
2022-12-22T09:22:25.104Z,25.90
2022-12-22T09:24:55.497Z,25.65
2022-12-22T09:27:22.668Z,24.70
2022-12-22T09:29:49.821Z,25.13
2022-12-22T09:32:17.090Z,24.40
2022-12-22T09:34:44.276Z,23.02
2022-12-22T09:37:11.420Z,23.55
2022-12-22T09:39:38.627Z,24.75
2022-12-22T09:42:05.787Z,25.17
2022-12-22T09:44:39.061Z,25.13
2022-12-22T09:47:13.902Z,25.83
2022-12-22T09:49:41.092Z,28.40
2022-12-22T09:52:19.765Z,28.38
2022-12-22T09:54:46.987Z,26.63
2022-12-22T09:57:14.276Z,27.40
2022-12-22T09:59:41.387Z,25.85
2022-12-22T10:02:44.366Z,24.42
2022-12-22T10:05:28.401Z,24.52
2022-12-22T10:08:01.235Z,24.55
2022-12-22T10:10:29.748Z,25.02
2022-12-22T10:12:57.689Z,26.15
2022-12-22T10:15:25.604Z,27.08
2022-12-22T10:17:53.784Z,28.90
2022-12-22T10:20:22.642Z,28.50
2022-12-22T10:22:51.470Z,28.27
2022-12-22T10:25:27.269Z,29.05
2022-12-22T10:28:01.393Z,27.00
2022-12-22T10:30:33.651Z,26.20
2022-12-22T10:33:07.477Z,25.23
2022-12-22T10:35:54.160Z,26.00
2022-12-22T10:38:32.284Z,26.88
2022-12-22T10:41:02.900Z,27.80
2022-12-22T10:43:31.720Z,26.33
2022-12-22T10:45:59.374Z,25.45
2022-12-22T10:48:28.061Z,25.00
2022-12-22T10:50:55.866Z,25.67
2022-12-22T10:53:23.754Z,26.27
2022-12-22T10:56:05.479Z,27.65
2022-12-22T10:58:33.038Z,26.33
2022-12-22T11:01:05.663Z,28.38
2022-12-22T11:03:33.162Z,29.75
2022-12-22T11:06:01.627Z,30.52
2022-12-22T11:08:29.757Z,29.00
2022-12-22T11:10:59.727Z,32.08
2022-12-22T11:13:29.658Z,32.67
2022-12-22T11:15:59.546Z,34.22
2022-12-22T11:18:39.282Z,36.28
2022-12-22T11:21:25.274Z,34.17
2022-12-22T11:24:11.233Z,33.30
2022-12-22T11:26:50.965Z,30.95
2022-12-22T11:29:21.134Z,27.25
2022-12-22T11:31:51.333Z,27.25
2022-12-22T11:34:37.080Z,26.90
2022-12-22T11:37:10.247Z,27.27
2022-12-22T11:39:48.081Z,27.67
2022-12-22T11:42:24.289Z,27.90
2022-12-22T11:44:59.153Z,27.95
2022-12-22T11:47:38.213Z,25.60
2022-12-22T11:50:58.198Z,26.38
2022-12-22T11:52:52.469Z,27.65
2022-12-22T11:55:29.076Z,27.45
2022-12-22T11:58:12.886Z,29.00
2022-12-22T12:01:22.296Z,27.40
2022-12-22T12:04:03.141Z,28.02
2022-12-22T12:06:38.742Z,28.80
2022-12-22T12:09:19.582Z,29.40
2022-12-22T12:11:46.736Z,28.50
2022-12-22T12:14:35.317Z,31.33
2022-12-22T12:17:14.824Z,33.00
2022-12-22T12:19:44.060Z,29.27
2022-12-22T12:22:16.093Z,31.40
2022-12-22T12:24:43.279Z,30.33
2022-12-22T12:27:19.365Z,26.20
2022-12-22T12:33:00.570Z,28.50
2022-12-22T12:35:27.706Z,28.00
2022-12-22T12:37:59.298Z,27.55
2022-12-22T12:40:41.475Z,27.98
2022-12-22T12:43:16.198Z,28.00
2022-12-22T12:45:45.283Z,28.50
2022-12-22T12:48:24.520Z,28.38
2022-12-22T12:50:58.553Z,28.90
2022-12-22T12:53:26.734Z,28.40
2022-12-22T12:55:55.332Z,27.15
2022-12-22T12:58:37.829Z,30.98
2022-12-22T13:01:05.113Z,29.90
2022-12-22T13:06:40.471Z,28.50
2022-12-22T13:09:48.503Z,28.13
2022-12-22T13:12:14.455Z,27.63
2022-12-22T13:14:55.589Z,27.05
2022-12-22T13:17:42.351Z,28.00
2022-12-22T13:20:15.850Z,27.73
2022-12-22T13:22:44.381Z,26.80
2022-12-22T13:25:16.502Z,27.40
2022-12-22T13:27:43.944Z,27.80
2022-12-22T13:30:16.153Z,27.33
2022-12-22T13:32:43.841Z,27.92
2022-12-22T13:35:32.151Z,29.58
2022-12-22T13:38:00.700Z,27.98
2022-12-22T13:40:32.167Z,28.55
2022-12-22T13:43:10.243Z,29.15
2022-12-22T13:45:37.535Z,28.80
2022-12-22T13:48:23.580Z,28.27
2022-12-22T13:50:56.031Z,29.48
2022-12-22T13:56:20.695Z,28.55
2022-12-22T13:58:48.182Z,29.25
2022-12-22T14:01:17.107Z,31.23
2022-12-22T14:04:00.271Z,29.58
2022-12-22T14:06:36.406Z,28.50
2022-12-22T14:09:12.561Z,30.05
2022-12-22T14:11:42.866Z,28.25
2022-12-22T14:14:17.338Z,27.77
2022-12-22T14:16:49.379Z,28.98
2022-12-22T14:19:20.656Z,29.05
2022-12-22T14:24:17.589Z,29.17
2022-12-22T14:26:44.991Z,29.27
2022-12-22T14:29:18.009Z,29.45
2022-12-22T14:31:52.385Z,28.60
2022-12-22T14:34:30.195Z,29.52
2022-12-22T14:37:00.858Z,28.25
2022-12-22T14:39:31.838Z,29.42
2022-12-22T14:42:00.712Z,30.00
2022-12-22T14:44:33.296Z,30.00
2022-12-22T14:47:15.037Z,33.35
2022-12-22T14:49:51.249Z,31.83
2022-12-22T14:52:21.128Z,29.75
2022-12-22T14:54:49.515Z,28.92
2022-12-22T19:56:55.827Z,44.42
2022-12-22T19:59:39.311Z,44.50
2022-12-22T20:02:27.140Z,42.58
2022-12-22T20:04:54.861Z,41.88
2022-12-22T20:07:23.116Z,43.28
2022-12-22T20:09:50.360Z,44.95
2022-12-22T20:12:25.641Z,44.63
2022-12-22T20:14:53.509Z,43.88
2022-12-22T20:17:20.820Z,46.60
2022-12-22T20:19:47.965Z,44.80
2022-12-22T20:22:19.232Z,44.25
2022-12-22T20:27:18.139Z,42.47
2022-12-22T20:29:45.394Z,44.65
2022-12-22T20:32:14.089Z,43.38
2022-12-22T20:34:41.881Z,43.38
2022-12-22T20:37:16.088Z,44.70
2022-12-22T20:39:43.381Z,44.78
2022-12-22T20:42:21.130Z,43.63
2022-12-22T20:45:03.344Z,43.05
2022-12-22T20:47:32.565Z,43.35
2022-12-22T20:49:59.933Z,44.58
2022-12-22T20:52:27.114Z,43.92
2022-12-22T20:54:54.290Z,47.53
2022-12-22T20:57:22.272Z,44.55
2022-12-22T20:59:55.768Z,46.65
2022-12-22T21:02:27.217Z,46.10
2022-12-22T21:04:54.695Z,45.75
2022-12-22T21:07:21.847Z,45.15
2022-12-22T21:09:49.194Z,43.03
2022-12-22T21:12:16.363Z,48.30
2022-12-22T21:14:44.785Z,46.25
2022-12-22T21:17:21.180Z,43.10
2022-12-22T21:19:48.313Z,44.80
2022-12-22T21:22:15.473Z,45.53
2022-12-22T21:24:43.874Z,45.42
2022-12-22T21:27:16.178Z,45.05
2022-12-22T21:29:43.315Z,44.03
2022-12-22T21:32:16.485Z,43.67
2022-12-22T21:34:43.673Z,44.67
2022-12-22T21:37:15.685Z,41.67
2022-12-22T21:39:44.813Z,40.70
2022-12-22T21:42:16.395Z,42.08
2022-12-22T21:44:45.190Z,40.80
2022-12-22T21:47:13.666Z,41.67
2022-12-22T21:49:40.839Z,41.05
2022-12-22T21:52:08.045Z,40.60
2022-12-22T21:54:35.163Z,38.20
2022-12-22T21:57:02.314Z,39.08
2022-12-22T21:59:29.518Z,38.75
2022-12-22T22:01:57.142Z,37.92
2022-12-22T22:04:24.597Z,37.42
2022-12-22T22:06:51.789Z,38.35
2022-12-22T22:09:19.008Z,37.55
2022-12-22T22:12:04.816Z,37.40
2022-12-22T22:14:31.927Z,34.53
2022-12-22T22:16:59.053Z,38.13
2022-12-22T22:19:26.246Z,34.33
2022-12-22T22:21:53.400Z,33.78
2022-12-22T22:24:20.551Z,34.67
2022-12-22T22:26:49.314Z,34.78
2022-12-22T22:29:16.617Z,33.05
2022-12-22T22:31:44.031Z,34.83
2022-12-22T22:34:11.317Z,34.15
2022-12-22T22:36:38.450Z,34.55
2022-12-22T22:39:05.637Z,33.92
2022-12-22T22:41:39.316Z,33.88
2022-12-22T22:44:09.996Z,33.20
2022-12-22T22:46:37.270Z,32.30
2022-12-22T22:49:04.459Z,32.95
2022-12-22T22:51:31.600Z,34.35
2022-12-22T22:53:59.014Z,32.47
2022-12-22T22:56:26.257Z,30.98
2022-12-22T22:58:53.419Z,30.83
2022-12-22T23:01:20.601Z,30.52
2022-12-22T23:03:47.886Z,29.17
2022-12-22T23:06:15.382Z,30.00
2022-12-22T23:08:42.866Z,29.60
2022-12-22T23:11:16.342Z,30.80
2022-12-22T23:13:43.665Z,30.02
2022-12-22T23:16:10.901Z,29.55
2022-12-22T23:18:38.331Z,27.45
2022-12-22T23:21:06.324Z,28.05
2022-12-22T23:23:34.108Z,29.10
2022-12-22T23:26:01.476Z,29.35
2022-12-22T23:28:28.669Z,28.50
2022-12-22T23:30:55.903Z,28.83
2022-12-22T23:33:23.190Z,29.00
2022-12-22T23:35:50.910Z,27.95
2022-12-22T23:38:20.424Z,28.40
2022-12-22T23:40:53.087Z,29.10
2022-12-22T23:43:21.649Z,27.52
2022-12-22T23:45:48.807Z,28.80
2022-12-22T23:48:15.948Z,27.00
2022-12-22T23:50:46.404Z,27.67
2022-12-22T23:53:13.631Z,27.08
2022-12-22T23:55:47.371Z,28.48
2022-12-22T23:58:14.748Z,26.77
